sensor_id;sensor_type;location;lat;lon;timestamp;temperature;humidity
63317;DHT22;49822;41.468;13.560;2023-12-04T00:02:24;7.20;83.90
63317;DHT22;49822;41.468;13.560;2023-12-04T00:04:50;7.30;84.00
63317;DHT22;49822;41.468;13.560;2023-12-04T00:07:17;7.50;83.80
63317;DHT22;49822;41.468;13.560;2023-12-04T00:09:43;7.40;82.90
63317;DHT22;49822;41.468;13.560;2023-12-04T00:12:09;7.10;83.20
63317;DHT22;49822;41.468;13.560;2023-12-04T00:14:35;7.20;83.90
63317;DHT22;49822;41.468;13.560;2023-12-04T00:17:01;7.10;84.00
63317;DHT22;49822;41.468;13.560;2023-12-04T00:19:28;7.20;83.90
63317;DHT22;49822;41.468;13.560;2023-12-04T00:21:54;7.40;83.90
63317;DHT22;49822;41.468;13.560;2023-12-04T00:24:31;7.30;83.30
63317;DHT22;49822;41.468;13.560;2023-12-04T00:26:57;7.30;83.80
63317;DHT22;49822;41.468;13.560;2023-12-04T00:29:23;7.50;83.70
63317;DHT22;49822;41.468;13.560;2023-12-04T00:31:50;7.50;83.70
63317;DHT22;49822;41.468;13.560;2023-12-04T00:34:16;7.70;83.40
63317;DHT22;49822;41.468;13.560;2023-12-04T00:36:42;7.50;82.80
63317;DHT22;49822;41.468;13.560;2023-12-04T00:39:08;7.40;83.40
63317;DHT22;49822;41.468;13.560;2023-12-04T00:41:34;7.30;83.70
63317;DHT22;49822;41.468;13.560;2023-12-04T00:44:00;7.40;83.20
63317;DHT22;49822;41.468;13.560;2023-12-04T00:46:26;7.20;83.60
63317;DHT22;49822;41.468;13.560;2023-12-04T00:48:52;7.20;84.40
63317;DHT22;49822;41.468;13.560;2023-12-04T00:51:36;7.30;84.70
63317;DHT22;49822;41.468;13.560;2023-12-04T00:54:17;7.40;84.40
63317;DHT22;49822;41.468;13.560;2023-12-04T00:57:00;7.40;83.90
63317;DHT22;49822;41.468;13.560;2023-12-04T00:59:26;7.50;82.90
63317;DHT22;49822;41.468;13.560;2023-12-04T01:01:52;7.50;83.10
63317;DHT22;49822;41.468;13.560;2023-12-04T01:04:19;7.70;83.20
63317;DHT22;49822;41.468;13.560;2023-12-04T01:06:45;7.70;83.10
63317;DHT22;49822;41.468;13.560;2023-12-04T01:09:12;7.70;82.90
63317;DHT22;49822;41.468;13.560;2023-12-04T01:11:39;7.80;82.60
63317;DHT22;49822;41.468;13.560;2023-12-04T01:14:05;7.70;82.40
63317;DHT22;49822;41.468;13.560;2023-12-04T01:16:31;7.70;82.60
63317;DHT22;49822;41.468;13.560;2023-12-04T01:18:57;7.70;82.80
63317;DHT22;49822;41.468;13.560;2023-12-04T01:21:41;7.60;82.80
63317;DHT22;49822;41.468;13.560;2023-12-04T01:24:33;7.80;82.90
63317;DHT22;49822;41.468;13.560;2023-12-04T01:27:06;7.80;82.90
63317;DHT22;49822;41.468;13.560;2023-12-04T01:29:32;7.90;83.10
63317;DHT22;49822;41.468;13.560;2023-12-04T01:31:59;7.90;82.80
63317;DHT22;49822;41.468;13.560;2023-12-04T01:34:25;7.80;83.00
63317;DHT22;49822;41.468;13.560;2023-12-04T01:36:51;7.80;82.80
63317;DHT22;49822;41.468;13.560;2023-12-04T01:39:17;7.80;82.70
63317;DHT22;49822;41.468;13.560;2023-12-04T01:41:43;7.90;82.70
63317;DHT22;49822;41.468;13.560;2023-12-04T01:44:09;7.80;82.80
63317;DHT22;49822;41.468;13.560;2023-12-04T01:46:37;7.40;83.50
63317;DHT22;49822;41.468;13.560;2023-12-04T01:49:03;7.20;84.20
63317;DHT22;49822;41.468;13.560;2023-12-04T01:51:42;7.30;84.80
63317;DHT22;49822;41.468;13.560;2023-12-04T01:54:32;7.40;85.10
63317;DHT22;49822;41.468;13.560;2023-12-04T01:57:03;7.50;84.70
63317;DHT22;49822;41.468;13.560;2023-12-04T01:59:30;7.40;84.50
63317;DHT22;49822;41.468;13.560;2023-12-04T02:01:56;7.40;85.00
63317;DHT22;49822;41.468;13.560;2023-12-04T02:04:22;7.60;85.20
63317;DHT22;49822;41.468;13.560;2023-12-04T02:06:48;7.80;85.10
63317;DHT22;49822;41.468;13.560;2023-12-04T02:09:15;7.80;85.00
63317;DHT22;49822;41.468;13.560;2023-12-04T02:11:42;8.00;84.80
63317;DHT22;49822;41.468;13.560;2023-12-04T02:14:09;8.10;84.60
63317;DHT22;49822;41.468;13.560;2023-12-04T02:16:39;8.30;84.60
63317;DHT22;49822;41.468;13.560;2023-12-04T02:19:12;8.00;84.60
63317;DHT22;49822;41.468;13.560;2023-12-04T02:21:38;8.40;84.80
63317;DHT22;49822;41.468;13.560;2023-12-04T02:24:04;8.40;84.50
63317;DHT22;49822;41.468;13.560;2023-12-04T02:26:35;8.40;84.40
63317;DHT22;49822;41.468;13.560;2023-12-04T02:29:07;8.40;84.60
63317;DHT22;49822;41.468;13.560;2023-12-04T02:31:34;8.50;84.60
63317;DHT22;49822;41.468;13.560;2023-12-04T02:34:01;8.40;84.40
63317;DHT22;49822;41.468;13.560;2023-12-04T02:36:31;8.40;84.30
63317;DHT22;49822;41.468;13.560;2023-12-04T02:38:58;8.40;84.30
63317;DHT22;49822;41.468;13.560;2023-12-04T02:41:24;8.40;84.20
63317;DHT22;49822;41.468;13.560;2023-12-04T02:43:51;8.30;84.50
63317;DHT22;49822;41.468;13.560;2023-12-04T02:46:17;8.40;84.50
63317;DHT22;49822;41.468;13.560;2023-12-04T02:48:43;8.40;84.30
63317;DHT22;49822;41.468;13.560;2023-12-04T02:51:10;8.40;84.30
63317;DHT22;49822;41.468;13.560;2023-12-04T02:53:36;8.60;84.50
63317;DHT22;49822;41.468;13.560;2023-12-04T02:56:02;8.50;84.50
63317;DHT22;49822;41.468;13.560;2023-12-04T02:58:28;8.20;84.70
63317;DHT22;49822;41.468;13.560;2023-12-04T03:00:55;8.40;84.60
63317;DHT22;49822;41.468;13.560;2023-12-04T03:03:21;8.40;84.60
63317;DHT22;49822;41.468;13.560;2023-12-04T03:05:48;8.40;84.60
63317;DHT22;49822;41.468;13.560;2023-12-04T03:08:14;8.50;84.60
63317;DHT22;49822;41.468;13.560;2023-12-04T03:10:42;8.30;84.70
63317;DHT22;49822;41.468;13.560;2023-12-04T03:13:08;8.30;84.80
63317;DHT22;49822;41.468;13.560;2023-12-04T03:15:44;8.40;84.80
63317;DHT22;49822;41.468;13.560;2023-12-04T03:18:27;8.50;84.80
63317;DHT22;49822;41.468;13.560;2023-12-04T03:21:12;8.40;84.70
63317;DHT22;49822;41.468;13.560;2023-12-04T03:23:38;8.40;84.70
63317;DHT22;49822;41.468;13.560;2023-12-04T03:26:04;8.30;84.60
63317;DHT22;49822;41.468;13.560;2023-12-04T03:28:30;8.20;84.50
63317;DHT22;49822;41.468;13.560;2023-12-04T03:30:57;8.20;84.50
63317;DHT22;49822;41.468;13.560;2023-12-04T03:33:24;8.10;84.60
63317;DHT22;49822;41.468;13.560;2023-12-04T03:35:50;8.20;84.70
63317;DHT22;49822;41.468;13.560;2023-12-04T03:38:16;7.80;84.80
63317;DHT22;49822;41.468;13.560;2023-12-04T03:40:42;7.70;85.70
63317;DHT22;49822;41.468;13.560;2023-12-04T03:43:09;7.60;86.20
63317;DHT22;49822;41.468;13.560;2023-12-04T03:45:37;7.60;86.30
63317;DHT22;49822;41.468;13.560;2023-12-04T03:48:18;7.60;86.00
63317;DHT22;49822;41.468;13.560;2023-12-04T03:51:29;7.40;85.60
63317;DHT22;49822;41.468;13.560;2023-12-04T03:53:55;7.20;86.10
63317;DHT22;49822;41.468;13.560;2023-12-04T03:56:21;7.20;86.20
63317;DHT22;49822;41.468;13.560;2023-12-04T03:58:47;7.20;86.40
63317;DHT22;49822;41.468;13.560;2023-12-04T04:01:13;7.10;86.50
63317;DHT22;49822;41.468;13.560;2023-12-04T04:03:39;7.10;86.60
63317;DHT22;49822;41.468;13.560;2023-12-04T04:06:06;7.10;86.90
63317;DHT22;49822;41.468;13.560;2023-12-04T04:08:33;7.10;86.80
63317;DHT22;49822;41.468;13.560;2023-12-04T04:10:59;7.10;86.80
63317;DHT22;49822;41.468;13.560;2023-12-04T04:13:25;7.00;86.40
63317;DHT22;49822;41.468;13.560;2023-12-04T04:15:52;6.90;86.50
63317;DHT22;49822;41.468;13.560;2023-12-04T04:18:47;6.80;86.50
63317;DHT22;49822;41.468;13.560;2023-12-04T04:21:44;6.90;86.10
63317;DHT22;49822;41.468;13.560;2023-12-04T04:24:20;6.90;86.60
63317;DHT22;49822;41.468;13.560;2023-12-04T04:26:46;6.80;86.50
63317;DHT22;49822;41.468;13.560;2023-12-04T04:29:12;6.80;86.00
63317;DHT22;49822;41.468;13.560;2023-12-04T04:31:38;6.70;86.10
63317;DHT22;49822;41.468;13.560;2023-12-04T04:34:05;6.70;86.60
63317;DHT22;49822;41.468;13.560;2023-12-04T04:36:31;6.70;86.80
63317;DHT22;49822;41.468;13.560;2023-12-04T04:38:57;6.60;86.30
63317;DHT22;49822;41.468;13.560;2023-12-04T04:41:24;6.60;85.60
63317;DHT22;49822;41.468;13.560;2023-12-04T04:43:50;6.60;85.40
63317;DHT22;49822;41.468;13.560;2023-12-04T04:46:16;6.60;86.20
63317;DHT22;49822;41.468;13.560;2023-12-04T04:49:03;6.50;85.90
63317;DHT22;49822;41.468;13.560;2023-12-04T04:51:43;6.40;86.10
63317;DHT22;49822;41.468;13.560;2023-12-04T04:54:09;6.10;86.30
63317;DHT22;49822;41.468;13.560;2023-12-04T04:56:36;5.70;86.60
63317;DHT22;49822;41.468;13.560;2023-12-04T04:59:02;5.90;87.50
63317;DHT22;49822;41.468;13.560;2023-12-04T05:01:29;6.00;88.00
63317;DHT22;49822;41.468;13.560;2023-12-04T05:03:55;6.00;87.80
63317;DHT22;49822;41.468;13.560;2023-12-04T05:06:21;6.30;87.60
63317;DHT22;49822;41.468;13.560;2023-12-04T05:08:48;6.30;87.00
63317;DHT22;49822;41.468;13.560;2023-12-04T05:11:18;6.30;86.40
63317;DHT22;49822;41.468;13.560;2023-12-04T05:13:50;6.30;86.50
63317;DHT22;49822;41.468;13.560;2023-12-04T05:16:16;6.50;86.50
63317;DHT22;49822;41.468;13.560;2023-12-04T05:18:42;6.30;85.90
63317;DHT22;49822;41.468;13.560;2023-12-04T05:21:09;6.40;85.50
63317;DHT22;49822;41.468;13.560;2023-12-04T05:23:37;6.50;85.40
63317;DHT22;49822;41.468;13.560;2023-12-04T05:26:04;6.40;85.20
63317;DHT22;49822;41.468;13.560;2023-12-04T05:28:30;6.30;85.00
63317;DHT22;49822;41.468;13.560;2023-12-04T05:30:57;6.60;84.90
63317;DHT22;49822;41.468;13.560;2023-12-04T05:33:23;6.40;84.40
63317;DHT22;49822;41.468;13.560;2023-12-04T05:35:51;6.20;84.30
63317;DHT22;49822;41.468;13.560;2023-12-04T05:38:18;5.70;85.30
63317;DHT22;49822;41.468;13.560;2023-12-04T05:40:44;5.70;86.20
63317;DHT22;49822;41.468;13.560;2023-12-04T05:43:10;5.80;87.20
63317;DHT22;49822;41.468;13.560;2023-12-04T05:45:38;5.80;87.30
63317;DHT22;49822;41.468;13.560;2023-12-04T05:48:06;5.90;87.20
63317;DHT22;49822;41.468;13.560;2023-12-04T05:50:32;6.20;87.00
63317;DHT22;49822;41.468;13.560;2023-12-04T05:52:58;5.90;85.60
63317;DHT22;49822;41.468;13.560;2023-12-04T05:55:25;5.90;85.70
63317;DHT22;49822;41.468;13.560;2023-12-04T05:57:51;5.90;86.10
63317;DHT22;49822;41.468;13.560;2023-12-04T06:00:19;5.90;85.90
63317;DHT22;49822;41.468;13.560;2023-12-04T06:02:45;5.60;85.70
63317;DHT22;49822;41.468;13.560;2023-12-04T06:05:11;5.60;86.30
63317;DHT22;49822;41.468;13.560;2023-12-04T06:07:38;5.90;86.80
63317;DHT22;49822;41.468;13.560;2023-12-04T06:10:05;5.90;86.80
63317;DHT22;49822;41.468;13.560;2023-12-04T06:12:34;6.10;86.50
63317;DHT22;49822;41.468;13.560;2023-12-04T06:15:00;5.90;86.00
63317;DHT22;49822;41.468;13.560;2023-12-04T06:17:26;5.70;85.30
63317;DHT22;49822;41.468;13.560;2023-12-04T06:19:53;5.60;86.20
63317;DHT22;49822;41.468;13.560;2023-12-04T06:22:20;5.80;86.70
63317;DHT22;49822;41.468;13.560;2023-12-04T06:24:48;6.00;86.90
63317;DHT22;49822;41.468;13.560;2023-12-04T06:27:18;6.10;86.80
63317;DHT22;49822;41.468;13.560;2023-12-04T06:29:46;6.10;86.40
63317;DHT22;49822;41.468;13.560;2023-12-04T06:32:13;6.10;85.90
63317;DHT22;49822;41.468;13.560;2023-12-04T06:34:40;6.00;85.80
63317;DHT22;49822;41.468;13.560;2023-12-04T06:37:11;6.10;85.40
63317;DHT22;49822;41.468;13.560;2023-12-04T06:39:38;6.10;85.40
63317;DHT22;49822;41.468;13.560;2023-12-04T06:42:08;6.30;85.10
63317;DHT22;49822;41.468;13.560;2023-12-04T06:44:35;6.20;85.20
63317;DHT22;49822;41.468;13.560;2023-12-04T06:47:03;6.20;85.40
63317;DHT22;49822;41.468;13.560;2023-12-04T06:49:31;6.30;85.30
63317;DHT22;49822;41.468;13.560;2023-12-04T06:51:59;6.30;85.40
63317;DHT22;49822;41.468;13.560;2023-12-04T06:54:26;6.20;85.20
63317;DHT22;49822;41.468;13.560;2023-12-04T06:56:52;6.00;85.10
63317;DHT22;49822;41.468;13.560;2023-12-04T06:59:19;6.10;85.90
63317;DHT22;49822;41.468;13.560;2023-12-04T07:01:45;6.20;86.40
63317;DHT22;49822;41.468;13.560;2023-12-04T07:04:12;6.30;86.10
63317;DHT22;49822;41.468;13.560;2023-12-04T07:06:39;6.50;86.00
63317;DHT22;49822;41.468;13.560;2023-12-04T07:09:06;6.60;85.80
63317;DHT22;49822;41.468;13.560;2023-12-04T07:11:35;6.70;85.50
63317;DHT22;49822;41.468;13.560;2023-12-04T07:14:01;6.80;85.40
63317;DHT22;49822;41.468;13.560;2023-12-04T07:16:27;6.80;85.20
63317;DHT22;49822;41.468;13.560;2023-12-04T07:18:53;7.00;85.10
63317;DHT22;49822;41.468;13.560;2023-12-04T07:21:20;7.20;85.00
63317;DHT22;49822;41.468;13.560;2023-12-04T07:23:46;7.20;84.90
63317;DHT22;49822;41.468;13.560;2023-12-04T07:26:12;7.30;84.90
63317;DHT22;49822;41.468;13.560;2023-12-04T07:28:39;7.40;84.80
63317;DHT22;49822;41.468;13.560;2023-12-04T07:31:05;7.60;84.90
63317;DHT22;49822;41.468;13.560;2023-12-04T07:33:31;7.70;84.90
63317;DHT22;49822;41.468;13.560;2023-12-04T07:35:58;8.00;85.20
63317;DHT22;49822;41.468;13.560;2023-12-04T07:38:24;8.00;85.20
63317;DHT22;49822;41.468;13.560;2023-12-04T07:40:50;8.30;84.90
63317;DHT22;49822;41.468;13.560;2023-12-04T07:43:17;8.40;84.50
63317;DHT22;49822;41.468;13.560;2023-12-04T07:45:45;8.60;84.40
63317;DHT22;49822;41.468;13.560;2023-12-04T07:48:11;8.70;84.00
63317;DHT22;49822;41.468;13.560;2023-12-04T07:50:38;8.80;84.10
63317;DHT22;49822;41.468;13.560;2023-12-04T07:53:05;8.90;84.40
63317;DHT22;49822;41.468;13.560;2023-12-04T07:55:33;9.00;84.20
63317;DHT22;49822;41.468;13.560;2023-12-04T07:57:59;9.10;84.10
63317;DHT22;49822;41.468;13.560;2023-12-04T08:00:25;9.10;83.90
63317;DHT22;49822;41.468;13.560;2023-12-04T08:02:52;9.30;83.80
63317;DHT22;49822;41.468;13.560;2023-12-04T08:05:19;9.40;83.90
63317;DHT22;49822;41.468;13.560;2023-12-04T08:07:45;9.40;83.90
63317;DHT22;49822;41.468;13.560;2023-12-04T08:10:11;9.50;83.50
63317;DHT22;49822;41.468;13.560;2023-12-04T08:12:37;9.60;83.10
63317;DHT22;49822;41.468;13.560;2023-12-04T08:15:05;9.60;83.20
63317;DHT22;49822;41.468;13.560;2023-12-04T08:17:33;9.80;83.00
63317;DHT22;49822;41.468;13.560;2023-12-04T08:20:00;10.00;82.90
63317;DHT22;49822;41.468;13.560;2023-12-04T08:22:26;10.10;82.60
63317;DHT22;49822;41.468;13.560;2023-12-04T08:24:52;10.30;82.20
63317;DHT22;49822;41.468;13.560;2023-12-04T08:27:19;10.50;81.80
63317;DHT22;49822;41.468;13.560;2023-12-04T08:29:45;10.80;81.60
63317;DHT22;49822;41.468;13.560;2023-12-04T08:32:11;11.00;81.30
63317;DHT22;49822;41.468;13.560;2023-12-04T08:34:37;11.20;81.40
63317;DHT22;49822;41.468;13.560;2023-12-04T08:37:05;11.40;81.00
63317;DHT22;49822;41.468;13.560;2023-12-04T08:39:31;11.70;80.60
63317;DHT22;49822;41.468;13.560;2023-12-04T08:41:57;11.90;79.70
63317;DHT22;49822;41.468;13.560;2023-12-04T08:44:25;12.00;79.30
63317;DHT22;49822;41.468;13.560;2023-12-04T08:46:51;12.20;78.90
63317;DHT22;49822;41.468;13.560;2023-12-04T08:49:18;12.50;78.60
63317;DHT22;49822;41.468;13.560;2023-12-04T08:51:44;12.60;78.00
63317;DHT22;49822;41.468;13.560;2023-12-04T08:54:10;12.90;77.60
63317;DHT22;49822;41.468;13.560;2023-12-04T08:56:36;13.30;77.40
63317;DHT22;49822;41.468;13.560;2023-12-04T08:59:02;13.60;76.90
63317;DHT22;49822;41.468;13.560;2023-12-04T09:01:28;14.00;76.40
63317;DHT22;49822;41.468;13.560;2023-12-04T09:03:55;14.00;73.60
63317;DHT22;49822;41.468;13.560;2023-12-04T09:06:22;14.10;73.30
63317;DHT22;49822;41.468;13.560;2023-12-04T09:08:48;14.20;73.60
63317;DHT22;49822;41.468;13.560;2023-12-04T09:11:14;14.40;73.30
63317;DHT22;49822;41.468;13.560;2023-12-04T09:13:40;14.20;72.60
63317;DHT22;49822;41.468;13.560;2023-12-04T09:16:07;14.20;72.50
63317;DHT22;49822;41.468;13.560;2023-12-04T09:18:34;14.60;72.70
63317;DHT22;49822;41.468;13.560;2023-12-04T09:21:00;15.10;72.70
63317;DHT22;49822;41.468;13.560;2023-12-04T09:23:26;15.70;71.10
63317;DHT22;49822;41.468;13.560;2023-12-04T09:25:53;16.00;70.00
63317;DHT22;49822;41.468;13.560;2023-12-04T09:28:19;16.00;69.70
63317;DHT22;49822;41.468;13.560;2023-12-04T09:30:45;15.90;68.60
63317;DHT22;49822;41.468;13.560;2023-12-04T09:33:13;15.70;69.10
63317;DHT22;49822;41.468;13.560;2023-12-04T09:35:39;15.90;69.00
63317;DHT22;49822;41.468;13.560;2023-12-04T09:38:05;15.90;68.80
63317;DHT22;49822;41.468;13.560;2023-12-04T09:40:33;16.20;69.00
63317;DHT22;49822;41.468;13.560;2023-12-04T09:42:59;16.70;68.00
63317;DHT22;49822;41.468;13.560;2023-12-04T09:45:25;17.10;66.90
63317;DHT22;49822;41.468;13.560;2023-12-04T09:47:53;17.50;65.40
63317;DHT22;49822;41.468;13.560;2023-12-04T09:50:20;17.70;64.70
63317;DHT22;49822;41.468;13.560;2023-12-04T09:52:49;17.90;64.90
63317;DHT22;49822;41.468;13.560;2023-12-04T09:55:19;17.70;64.40
63317;DHT22;49822;41.468;13.560;2023-12-04T09:57:46;17.60;65.10
63317;DHT22;49822;41.468;13.560;2023-12-04T10:00:13;17.50;65.40
63317;DHT22;49822;41.468;13.560;2023-12-04T10:02:41;17.30;66.30
63317;DHT22;49822;41.468;13.560;2023-12-04T10:05:08;17.10;65.90
63317;DHT22;49822;41.468;13.560;2023-12-04T10:07:35;16.80;66.60
63317;DHT22;49822;41.468;13.560;2023-12-04T10:10:03;16.70;67.40
63317;DHT22;49822;41.468;13.560;2023-12-04T10:12:36;16.80;67.40
63317;DHT22;49822;41.468;13.560;2023-12-04T10:15:08;17.10;67.10
63317;DHT22;49822;41.468;13.560;2023-12-04T10:17:39;17.30;66.10
63317;DHT22;49822;41.468;13.560;2023-12-04T10:20:15;17.10;66.10
63317;DHT22;49822;41.468;13.560;2023-12-04T10:23:01;17.30;66.40
63317;DHT22;49822;41.468;13.560;2023-12-04T10:25:30;17.50;67.00
63317;DHT22;49822;41.468;13.560;2023-12-04T10:28:13;17.60;65.70
63317;DHT22;49822;41.468;13.560;2023-12-04T10:30:43;17.50;65.80
63317;DHT22;49822;41.468;13.560;2023-12-04T10:33:13;17.30;66.20
63317;DHT22;49822;41.468;13.560;2023-12-04T10:35:40;17.20;65.60
63317;DHT22;49822;41.468;13.560;2023-12-04T10:38:08;17.40;65.90
63317;DHT22;49822;41.468;13.560;2023-12-04T10:40:36;17.60;66.60
63317;DHT22;49822;41.468;13.560;2023-12-04T10:43:15;18.00;66.70
63317;DHT22;49822;41.468;13.560;2023-12-04T10:45:44;18.30;65.80
63317;DHT22;49822;41.468;13.560;2023-12-04T10:48:13;18.20;65.40
63317;DHT22;49822;41.468;13.560;2023-12-04T10:50:41;18.20;64.80
63317;DHT22;49822;41.468;13.560;2023-12-04T10:53:09;18.20;65.00
63317;DHT22;49822;41.468;13.560;2023-12-04T10:55:40;18.10;65.20
63317;DHT22;49822;41.468;13.560;2023-12-04T10:58:08;17.90;65.50
63317;DHT22;49822;41.468;13.560;2023-12-04T11:00:45;17.60;66.20
63317;DHT22;49822;41.468;13.560;2023-12-04T11:03:36;17.30;66.20
63317;DHT22;49822;41.468;13.560;2023-12-04T11:06:05;17.10;66.90
63317;DHT22;49822;41.468;13.560;2023-12-04T11:08:36;16.70;67.50
63317;DHT22;49822;41.468;13.560;2023-12-04T11:11:04;16.40;68.20
63317;DHT22;49822;41.468;13.560;2023-12-04T11:13:45;16.10;68.00
63317;DHT22;49822;41.468;13.560;2023-12-04T11:16:28;15.80;68.80
63317;DHT22;49822;41.468;13.560;2023-12-04T11:19:00;15.60;69.20
63317;DHT22;49822;41.468;13.560;2023-12-04T11:21:28;15.50;69.80
63317;DHT22;49822;41.468;13.560;2023-12-04T11:23:56;15.20;70.30
63317;DHT22;49822;41.468;13.560;2023-12-04T11:26:24;15.00;70.90
63317;DHT22;49822;41.468;13.560;2023-12-04T11:28:52;14.90;71.10
63317;DHT22;49822;41.468;13.560;2023-12-04T11:31:19;14.70;71.20
63317;DHT22;49822;41.468;13.560;2023-12-04T11:33:46;14.60;71.40
63317;DHT22;49822;41.468;13.560;2023-12-04T11:36:12;14.50;72.20
63317;DHT22;49822;41.468;13.560;2023-12-04T11:38:49;14.30;72.10
63317;DHT22;49822;41.468;13.560;2023-12-04T11:41:19;14.20;72.20
63317;DHT22;49822;41.468;13.560;2023-12-04T11:43:46;14.10;72.60
63317;DHT22;49822;41.468;13.560;2023-12-04T11:46:26;14.00;72.80
63317;DHT22;49822;41.468;13.560;2023-12-04T11:49:25;14.00;72.60
63317;DHT22;49822;41.468;13.560;2023-12-04T11:54:11;13.80;72.60
63317;DHT22;49822;41.468;13.560;2023-12-04T11:56:39;13.70;72.70
63317;DHT22;49822;41.468;13.560;2023-12-04T11:59:07;13.70;73.30
63317;DHT22;49822;41.468;13.560;2023-12-04T12:01:37;13.70;74.10
63317;DHT22;49822;41.468;13.560;2023-12-04T12:04:07;13.70;74.60
63317;DHT22;49822;41.468;13.560;2023-12-04T12:06:33;13.70;74.00
63317;DHT22;49822;41.468;13.560;2023-12-04T12:08:59;13.60;73.60
63317;DHT22;49822;41.468;13.560;2023-12-04T12:11:26;13.60;74.10
63317;DHT22;49822;41.468;13.560;2023-12-04T12:13:55;13.50;74.00
63317;DHT22;49822;41.468;13.560;2023-12-04T12:16:21;13.60;73.40
63317;DHT22;49822;41.468;13.560;2023-12-04T12:18:48;13.50;73.00
63317;DHT22;49822;41.468;13.560;2023-12-04T12:21:14;13.50;73.60
63317;DHT22;49822;41.468;13.560;2023-12-04T12:23:41;13.60;74.50
63317;DHT22;49822;41.468;13.560;2023-12-04T12:26:08;13.60;74.20
63317;DHT22;49822;41.468;13.560;2023-12-04T12:28:37;13.60;74.20
63317;DHT22;49822;41.468;13.560;2023-12-04T12:31:04;13.60;74.10
63317;DHT22;49822;41.468;13.560;2023-12-04T12:33:30;13.60;73.70
63317;DHT22;49822;41.468;13.560;2023-12-04T12:35:58;13.90;73.40
63317;DHT22;49822;41.468;13.560;2023-12-04T12:38:25;14.10;73.90
63317;DHT22;49822;41.468;13.560;2023-12-04T12:40:51;14.50;73.30
63317;DHT22;49822;41.468;13.560;2023-12-04T12:43:21;14.90;73.00
63317;DHT22;49822;41.468;13.560;2023-12-04T12:45:49;15.00;72.10
63317;DHT22;49822;41.468;13.560;2023-12-04T12:48:18;15.00;71.00
63317;DHT22;49822;41.468;13.560;2023-12-04T12:50:46;15.00;70.40
63317;DHT22;49822;41.468;13.560;2023-12-04T12:53:13;14.90;70.70
63317;DHT22;49822;41.468;13.560;2023-12-04T12:55:43;14.80;71.40
63317;DHT22;49822;41.468;13.560;2023-12-04T12:58:11;14.70;71.00
63317;DHT22;49822;41.468;13.560;2023-12-04T13:00:41;14.60;71.60
63317;DHT22;49822;41.468;13.560;2023-12-04T13:03:18;14.40;71.50
63317;DHT22;49822;41.468;13.560;2023-12-04T13:05:44;14.20;71.30
63317;DHT22;49822;41.468;13.560;2023-12-04T13:08:11;14.20;71.50
63317;DHT22;49822;41.468;13.560;2023-12-04T13:10:41;14.10;71.30
63317;DHT22;49822;41.468;13.560;2023-12-04T13:13:14;13.90;71.80
63317;DHT22;49822;41.468;13.560;2023-12-04T13:15:42;13.70;71.90
63317;DHT22;49822;41.468;13.560;2023-12-04T13:18:09;13.60;72.30
63317;DHT22;49822;41.468;13.560;2023-12-04T13:20:35;13.50;72.80
63317;DHT22;49822;41.468;13.560;2023-12-04T13:23:02;13.50;73.10
63317;DHT22;49822;41.468;13.560;2023-12-04T13:25:29;13.50;73.20
63317;DHT22;49822;41.468;13.560;2023-12-04T13:27:55;13.50;74.20
63317;DHT22;49822;41.468;13.560;2023-12-04T13:30:21;13.40;74.60
63317;DHT22;49822;41.468;13.560;2023-12-04T13:32:47;13.50;74.80
63317;DHT22;49822;41.468;13.560;2023-12-04T13:35:16;13.40;75.10
63317;DHT22;49822;41.468;13.560;2023-12-04T13:37:42;13.40;74.40
63317;DHT22;49822;41.468;13.560;2023-12-04T13:40:09;13.30;74.60
63317;DHT22;49822;41.468;13.560;2023-12-04T13:42:38;13.30;74.90
63317;DHT22;49822;41.468;13.560;2023-12-04T13:45:23;13.30;75.30
63317;DHT22;49822;41.468;13.560;2023-12-04T13:47:49;13.30;75.20
63317;DHT22;49822;41.468;13.560;2023-12-04T13:50:17;13.30;75.80
63317;DHT22;49822;41.468;13.560;2023-12-04T13:52:43;13.20;76.00
63317;DHT22;49822;41.468;13.560;2023-12-04T13:55:09;13.20;75.90
63317;DHT22;49822;41.468;13.560;2023-12-04T13:58:01;13.20;75.90
63317;DHT22;49822;41.468;13.560;2023-12-04T14:00:30;13.10;76.00
63317;DHT22;49822;41.468;13.560;2023-12-04T14:02:56;13.10;76.30
63317;DHT22;49822;41.468;13.560;2023-12-04T14:05:33;13.10;76.30
63317;DHT22;49822;41.468;13.560;2023-12-04T14:08:01;13.00;76.30
63317;DHT22;49822;41.468;13.560;2023-12-04T14:10:27;13.00;76.30
63317;DHT22;49822;41.468;13.560;2023-12-04T14:12:54;13.10;76.20
63317;DHT22;49822;41.468;13.560;2023-12-04T14:15:21;13.10;76.00
63317;DHT22;49822;41.468;13.560;2023-12-04T14:17:47;13.00;76.10
63317;DHT22;49822;41.468;13.560;2023-12-04T14:20:13;12.90;76.30
63317;DHT22;49822;41.468;13.560;2023-12-04T14:22:44;13.00;76.20
63317;DHT22;49822;41.468;13.560;2023-12-04T14:25:11;13.00;76.40
63317;DHT22;49822;41.468;13.560;2023-12-04T14:27:37;12.80;76.40
63317;DHT22;49822;41.468;13.560;2023-12-04T14:30:10;12.90;76.50
63317;DHT22;49822;41.468;13.560;2023-12-04T14:32:37;12.80;77.10
63317;DHT22;49822;41.468;13.560;2023-12-04T14:35:04;12.90;77.20
63317;DHT22;49822;41.468;13.560;2023-12-04T14:37:33;12.80;77.10
63317;DHT22;49822;41.468;13.560;2023-12-04T14:40:00;12.80;77.00
63317;DHT22;49822;41.468;13.560;2023-12-04T14:42:26;12.60;78.00
63317;DHT22;49822;41.468;13.560;2023-12-04T14:44:52;12.20;78.40
63317;DHT22;49822;41.468;13.560;2023-12-04T14:47:19;12.00;78.90
63317;DHT22;49822;41.468;13.560;2023-12-04T14:49:46;12.10;79.30
63317;DHT22;49822;41.468;13.560;2023-12-04T14:52:14;12.00;79.60
63317;DHT22;49822;41.468;13.560;2023-12-04T14:54:40;11.80;80.30
63317;DHT22;49822;41.468;13.560;2023-12-04T14:57:39;11.80;80.80
63317;DHT22;49822;41.468;13.560;2023-12-04T15:00:09;11.70;80.70
63317;DHT22;49822;41.468;13.560;2023-12-04T15:02:38;11.90;80.50
63317;DHT22;49822;41.468;13.560;2023-12-04T15:05:23;12.00;80.50
63317;DHT22;49822;41.468;13.560;2023-12-04T15:08:10;12.00;79.50
63317;DHT22;49822;41.468;13.560;2023-12-04T15:10:36;11.80;81.20
63317;DHT22;49822;41.468;13.560;2023-12-04T15:13:20;11.70;83.00
63317;DHT22;49822;41.468;13.560;2023-12-04T15:15:53;11.60;83.70
63317;DHT22;49822;41.468;13.560;2023-12-04T15:18:26;11.60;83.70
63317;DHT22;49822;41.468;13.560;2023-12-04T15:21:23;11.50;84.40
63317;DHT22;49822;41.468;13.560;2023-12-04T15:23:49;11.40;84.80
63317;DHT22;49822;41.468;13.560;2023-12-04T15:26:16;11.30;84.60
63317;DHT22;49822;41.468;13.560;2023-12-04T15:28:43;11.30;84.10
63317;DHT22;49822;41.468;13.560;2023-12-04T15:31:10;11.20;83.40
63317;DHT22;49822;41.468;13.560;2023-12-04T15:33:36;11.30;83.50
63317;DHT22;49822;41.468;13.560;2023-12-04T15:36:03;11.10;84.00
63317;DHT22;49822;41.468;13.560;2023-12-04T15:38:29;11.10;83.60